Time;durP1;ratioP1;P1;durP2;ratioP2;P2;SDS_P1;SDS_P2;PMS_P1;PMS_P2;Temp;Humidity;BMP_temperature;BMP_pressure;BME280_temperature;BME280_humidity;BME280_pressure;Samples;Min_cycle;Max_cycle;Signal;HPM_P1;HPM_P2
2022/05/18 00:01:07;;;;;;;;;;;;;;;19.11;56.51;99915.72;5381552;26;35049;-85
2022/05/18 00:03:36;;;;;;;;;;;;;;;19.13;55.97;99916.47;5387343;26;33269;-85
2022/05/18 00:06:05;;;;;;;;;;;;;;;18.85;57.14;99918.66;5381316;26;34051;-85
2022/05/18 00:08:36;;;;;;;;;;;;;;;18.75;57.60;99919.00;5382352;26;34079;-86
2022/05/18 00:11:08;;;;;;;;;;;;;;;18.89;56.82;99922.81;5382039;26;33651;-85
2022/05/18 00:13:36;;;;;;;;;;;;;;;18.98;56.00;99925.91;5381686;26;33016;-85
2022/05/18 00:16:05;;;;;;;;;;;;;;;18.94;56.32;99929.59;5387672;26;33444;-84
2022/05/18 00:18:34;;;;;;;;;;;;;;;18.66;56.83;99922.03;5381538;26;33275;-85
2022/05/18 00:21:03;;;;;;;;;;;;;;;18.78;56.79;99922.47;5381448;26;34336;-85
2022/05/18 00:23:33;;;;;;;;;;;;;;;18.87;57.23;99919.41;5361420;26;33425;-85
2022/05/18 00:26:01;;;;;;;;;;;;;;;18.88;56.47;99929.84;5381310;26;33147;-85
2022/05/18 00:28:31;;;;;;;;;;;;;;;19.03;55.02;99925.69;5387269;26;33622;-86
2022/05/18 00:31:02;;;;;;;;;;;;;;;18.79;56.25;99925.00;5387581;26;33999;-86
2022/05/18 00:33:32;;;;;;;;;;;;;;;18.76;57.78;99928.62;5382514;26;33835;-86
2022/05/18 00:36:02;;;;;;;;;;;;;;;18.98;56.81;99933.78;5382904;26;33324;-85
2022/05/18 00:38:30;;;;;;;;;;;;;;;19.07;56.08;99931.69;5382555;26;34195;-85
2022/05/18 00:40:59;;;;;;;;;;;;;;;18.92;57.47;99933.22;5385665;26;34106;-85
2022/05/18 00:43:42;;;;;;;;;;;;;;;19.05;57.34;99939.63;5411249;26;34962;-85
2022/05/18 00:46:12;;;;;;;;;;;;;;;18.89;56.41;99935.97;5405288;26;33161;-85
2022/05/18 00:48:41;;;;;;;;;;;;;;;19.01;55.08;99934.56;5405338;26;33013;-85
2022/05/18 00:51:11;;;;;;;;;;;;;;;19.04;55.31;99935.31;5405107;26;33718;-86
2022/05/18 00:53:40;;;;;;;;;;;;;;;19.00;55.30;99939.00;5405357;26;33766;-85
2022/05/18 00:56:10;;;;;;;;;;;;;;;18.88;56.28;99939.53;5409796;26;33430;-86
2022/05/18 00:58:39;;;;;;;;;;;;;;;19.16;53.80;99939.16;5390449;26;33661;-86
2022/05/18 01:01:09;;;;;;;;;;;;;;;19.03;52.78;99944.09;5405277;26;34813;-86
2022/05/18 01:03:38;;;;;;;;;;;;;;;18.73;53.15;99947.13;5405671;26;33106;-86
2022/05/18 01:06:07;;;;;;;;;;;;;;;19.05;51.66;99951.94;5405484;26;33543;-85
2022/05/18 01:08:36;;;;;;;;;;;;;;;18.81;51.52;99949.44;5405795;26;33634;-85
2022/05/18 01:11:05;;;;;;;;;;;;;;;18.67;51.01;99949.16;5411353;26;34300;-85
2022/05/18 01:13:34;;;;;;;;;;;;;;;18.62;50.96;99956.37;5408799;26;34847;-85
2022/05/18 01:16:02;;;;;;;;;;;;;;;18.78;49.37;99961.88;5417151;26;33315;-88
2022/05/18 01:18:32;;;;;;;;;;;;;;;18.76;48.65;99960.16;5405310;26;33876;-86
2022/05/18 01:21:01;;;;;;;;;;;;;;;18.51;49.29;99956.84;5405255;26;34233;-85
2022/05/18 01:23:55;;;;;;;;;;;;;;;18.43;50.03;99969.41;5410655;26;33297;-86
2022/05/18 01:26:39;;;;;;;;;;;;;;;18.25;50.93;99971.03;5410099;26;33543;-88
2022/05/18 01:29:08;;;;;;;;;;;;;;;18.48;50.26;99980.59;5405288;26;34821;-86
2022/05/18 01:31:44;;;;;;;;;;;;;;;18.20;51.22;99976.47;5384620;26;33963;-85
2022/05/18 01:34:12;;;;;;;;;;;;;;;18.51;50.10;99978.69;5405126;26;34006;-86
2022/05/18 01:36:41;;;;;;;;;;;;;;;18.61;49.69;99973.91;5404219;26;33162;-86
2022/05/18 01:39:13;;;;;;;;;;;;;;;18.57;49.76;99974.09;5404360;26;33583;-86
2022/05/18 01:41:44;;;;;;;;;;;;;;;18.42;50.01;99983.47;5409253;26;35281;-86
2022/05/18 01:44:13;;;;;;;;;;;;;;;18.67;49.50;99981.53;5404834;26;33814;-85
2022/05/18 01:46:42;;;;;;;;;;;;;;;18.69;51.37;99987.56;5405123;26;33309;-86
2022/05/18 01:49:10;;;;;;;;;;;;;;;18.64;51.21;99979.03;5407597;26;34266;-86
2022/05/18 01:51:39;;;;;;;;;;;;;;;18.76;49.42;99980.34;5405379;26;33976;-86
2022/05/18 01:54:08;;;;;;;;;;;;;;;18.58;49.39;99989.81;5410822;26;34290;-85
2022/05/18 01:56:37;;;;;;;;;;;;;;;18.83;49.80;99988.81;5405306;26;33303;-87
2022/05/18 01:59:07;;;;;;;;;;;;;;;18.93;47.20;99993.59;5404889;26;34342;-86
2022/05/18 02:01:35;;;;;;;;;;;;;;;18.74;50.14;99996.13;5407975;26;34295;-86
2022/05/18 02:04:04;;;;;;;;;;;;;;;18.81;48.89;99998.53;5405593;26;34137;-87
2022/05/18 02:06:33;;;;;;;;;;;;;;;18.70;50.32;100005.06;5410692;26;33936;-87
2022/05/18 02:09:02;;;;;;;;;;;;;;;18.79;49.96;100003.84;5404915;26;34346;-87
2022/05/18 02:11:31;;;;;;;;;;;;;;;18.55;51.20;100014.41;5405358;26;35168;-86
2022/05/18 02:14:00;;;;;;;;;;;;;;;18.58;51.68;100016.09;5405017;26;34011;-86
2022/05/18 02:16:29;;;;;;;;;;;;;;;18.48;51.97;100020.00;5404806;26;34556;-86
2022/05/18 02:19:01;;;;;;;;;;;;;;;18.23;53.15;100023.59;5406509;26;33636;-86
2022/05/18 02:21:30;;;;;;;;;;;;;;;18.11;53.58;100029.34;5410916;26;34265;-87
2022/05/18 02:23:58;;;;;;;;;;;;;;;17.94;54.32;100029.12;5404719;26;34787;-86
2022/05/18 02:26:27;;;;;;;;;;;;;;;17.81;54.24;100034.84;5404753;26;33032;-86
2022/05/18 02:28:55;;;;;;;;;;;;;;;17.98;54.36;100041.25;5405541;26;34098;-86
2022/05/18 02:31:24;;;;;;;;;;;;;;;17.83;54.33;100043.53;5405088;26;35198;-86
2022/05/18 02:33:54;;;;;;;;;;;;;;;17.75;54.69;100044.69;5410482;26;34647;-86
2022/05/18 02:36:22;;;;;;;;;;;;;;;17.90;54.03;100041.50;5404705;26;33777;-86
2022/05/18 02:38:52;;;;;;;;;;;;;;;17.66;54.27;100049.38;5405395;26;34261;-86
2022/05/18 02:41:20;;;;;;;;;;;;;;;17.56;54.68;100054.97;5405065;26;34107;-86
2022/05/18 02:43:51;;;;;;;;;;;;;;;17.48;55.20;100061.37;5404836;26;35087;-86
2022/05/18 02:46:21;;;;;;;;;;;;;;;17.58;54.04;100055.78;5413211;26;32723;-85
2022/05/18 02:48:51;;;;;;;;;;;;;;;17.44;53.34;100056.28;5404885;26;33861;-86
2022/05/18 02:51:21;;;;;;;;;;;;;;;17.32;54.61;100060.19;5405085;26;35520;-85
2022/05/18 02:53:50;;;;;;;;;;;;;;;17.49;55.17;100060.47;5404892;26;34930;-86
2022/05/18 02:56:18;;;;;;;;;;;;;;;17.42;55.70;100066.84;5404799;26;33648;-86
2022/05/18 02:58:49;;;;;;;;;;;;;;;17.16;57.02;100078.22;5410483;26;34856;-86
2022/05/18 03:01:18;;;;;;;;;;;;;;;17.36;56.47;100067.03;5410081;26;33405;-86
2022/05/18 03:03:48;;;;;;;;;;;;;;;17.13;56.84;100078.34;5404701;26;34542;-85
2022/05/18 03:06:17;;;;;;;;;;;;;;;17.35;55.85;100077.56;5404329;26;34322;-85
2022/05/18 03:08:47;;;;;;;;;;;;;;;17.34;56.02;100078.50;5405174;26;34315;-87
2022/05/18 03:11:16;;;;;;;;;;;;;;;17.17;56.62;100081.69;5404958;26;35104;-86
2022/05/18 03:13:44;;;;;;;;;;;;;;;17.30;56.17;100079.50;5410583;26;34193;-86
2022/05/18 03:16:13;;;;;;;;;;;;;;;17.23;56.45;100092.00;5405646;26;33660;-86
2022/05/18 03:18:42;;;;;;;;;;;;;;;17.08;56.25;100101.22;5404845;26;34199;-86
2022/05/18 03:23:58;;;;;;;;;;;;;;;17.07;56.99;100107.38;5402841;26;34466;-85
2022/05/18 03:26:26;;;;;;;;;;;;;;;16.85;57.89;100109.84;5410292;26;34351;-85
2022/05/18 03:28:56;;;;;;;;;;;;;;;16.83;58.46;100122.13;5402804;26;34111;-88
2022/05/18 03:31:25;;;;;;;;;;;;;;;16.86;58.75;100127.25;5404249;26;33432;-86
2022/05/18 03:33:55;;;;;;;;;;;;;;;16.94;58.33;100130.50;5404535;26;35055;-86
2022/05/18 03:36:23;;;;;;;;;;;;;;;16.93;58.63;100136.66;5401752;26;33386;-87
2022/05/18 03:38:53;;;;;;;;;;;;;;;16.87;59.49;100141.25;5409885;26;33605;-86
2022/05/18 03:41:23;;;;;;;;;;;;;;;17.04;58.46;100144.19;5404325;26;34716;-87
2022/05/18 03:43:51;;;;;;;;;;;;;;;16.86;59.11;100148.22;5402793;26;34273;-86
2022/05/18 03:46:20;;;;;;;;;;;;;;;16.74;59.29;100148.59;5407166;26;32967;-86
2022/05/18 03:48:49;;;;;;;;;;;;;;;16.62;59.51;100160.28;5410543;26;33824;-87
2022/05/18 03:51:17;;;;;;;;;;;;;;;16.88;58.61;100159.53;5402628;26;33970;-86
2022/05/18 03:53:46;;;;;;;;;;;;;;;16.90;58.40;100165.56;5404475;26;35114;-87
2022/05/18 03:56:15;;;;;;;;;;;;;;;16.83;58.40;100177.16;5404408;26;32833;-86
2022/05/18 03:58:45;;;;;;;;;;;;;;;16.91;58.04;100177.75;5408770;26;33967;-87
2022/05/18 04:01:17;;;;;;;;;;;;;;;16.92;58.68;100183.88;5388754;26;36195;-85
2022/05/18 04:03:46;;;;;;;;;;;;;;;16.82;58.63;100183.31;5404349;26;35228;-86
2022/05/18 04:06:15;;;;;;;;;;;;;;;16.89;58.59;100184.84;5403383;26;33316;-86
2022/05/18 04:08:44;;;;;;;;;;;;;;;16.90;55.60;100178.69;5405277;26;34387;-86
2022/05/18 04:11:13;;;;;;;;;;;;;;;17.17;55.24;100192.66;5411440;26;34368;-87
2022/05/18 04:13:41;;;;;;;;;;;;;;;17.00;56.61;100187.97;5404366;26;34360;-86
2022/05/18 04:16:11;;;;;;;;;;;;;;;16.92;56.77;100199.63;5407824;26;33225;-86
2022/05/18 04:18:40;;;;;;;;;;;;;;;17.01;54.88;100205.41;5404986;26;33051;-86
2022/05/18 04:21:08;;;;;;;;;;;;;;;17.14;55.66;100210.28;5409851;26;34414;-86
2022/05/18 04:23:40;;;;;;;;;;;;;;;17.10;56.63;100209.50;5405538;26;34142;-87
2022/05/18 04:26:08;;;;;;;;;;;;;;;17.46;55.17;100211.84;5405572;26;33552;-85
2022/05/18 04:28:37;;;;;;;;;;;;;;;17.29;56.00;100220.25;5403739;26;34196;-87
2022/05/18 04:31:05;;;;;;;;;;;;;;;17.17;56.84;100225.91;5407896;26;35079;-86
2022/05/18 04:33:36;;;;;;;;;;;;;;;17.31;56.38;100226.31;5410384;26;35737;-86
2022/05/18 04:36:04;;;;;;;;;;;;;;;17.52;55.72;100237.00;5407146;26;33329;-87
2022/05/18 04:38:33;;;;;;;;;;;;;;;17.65;54.96;100240.94;5405168;26;34065;-86
2022/05/18 04:41:01;;;;;;;;;;;;;;;17.85;54.66;100243.78;5422186;26;35037;-86
2022/05/18 04:43:32;;;;;;;;;;;;;;;18.63;50.94;100242.75;5412203;26;34868;-86
2022/05/18 04:46:01;;;;;;;;;;;;;;;18.83;51.53;100249.91;5405978;26;33242;-86
2022/05/18 04:48:31;;;;;;;;;;;;;;;18.73;49.20;100248.50;5405418;26;33696;-86
2022/05/18 04:51:04;;;;;;;;;;;;;;;18.27;53.04;100245.81;5405614;26;34098;-86
2022/05/18 04:53:34;;;;;;;;;;;;;;;19.34;51.10;100250.53;5407477;26;34811;-86
2022/05/18 04:56:03;;;;;;;;;;;;;;;20.36;47.58;100253.25;5411601;26;33609;-87
2022/05/18 04:58:31;;;;;;;;;;;;;;;20.70;46.66;100256.16;5405275;26;34268;-87
2022/05/18 05:01:02;;;;;;;;;;;;;;;21.01;43.66;100260.87;5404979;26;33382;-87
2022/05/18 05:03:31;;;;;;;;;;;;;;;21.64;42.61;100273.69;5405211;26;34337;-87
2022/05/18 05:06:04;;;;;;;;;;;;;;;21.93;39.84;100277.50;5407332;26;34357;-87
2022/05/18 05:08:34;;;;;;;;;;;;;;;21.12;42.15;100284.09;5410758;26;33834;-87
2022/05/18 05:11:03;;;;;;;;;;;;;;;20.21;44.01;100289.03;5407730;26;35730;-87
2022/05/18 05:13:32;;;;;;;;;;;;;;;19.26;44.68;100289.47;5404903;26;34215;-87
2022/05/18 05:16:01;;;;;;;;;;;;;;;18.99;45.66;100289.59;5404610;26;33953;-87
2022/05/18 05:18:30;;;;;;;;;;;;;;;19.07;45.40;100297.22;5404982;26;35709;-87
2022/05/18 05:20:59;;;;;;;;;;;;;;;18.93;45.95;100298.59;5405176;26;35144;-87
2022/05/18 05:23:32;;;;;;;;;;;;;;;18.09;47.40;100312.09;5410561;26;34218;-88
2022/05/18 05:26:01;;;;;;;;;;;;;;;18.19;47.00;100316.13;5404715;26;33278;-87
2022/05/18 05:28:30;;;;;;;;;;;;;;;18.10;47.82;100321.72;5405274;26;34113;-88
2022/05/18 05:31:01;;;;;;;;;;;;;;;17.13;47.64;100322.16;5383408;26;33903;-87
2022/05/18 05:33:30;;;;;;;;;;;;;;;17.45;46.38;100329.03;5406033;26;33971;-87
2022/05/18 05:35:59;;;;;;;;;;;;;;;17.81;45.76;100338.44;5410670;26;33482;-88
2022/05/18 05:38:28;;;;;;;;;;;;;;;17.74;45.16;100337.75;5405236;26;34344;-87
2022/05/18 05:40:59;;;;;;;;;;;;;;;17.61;45.46;100350.38;5407426;26;34070;-87
2022/05/18 05:43:28;;;;;;;;;;;;;;;17.61;46.46;100347.75;5405078;26;35105;-88
2022/05/18 05:45:57;;;;;;;;;;;;;;;17.40;46.81;100346.69;5404812;26;34191;-87
2022/05/18 05:48:26;;;;;;;;;;;;;;;17.13;48.27;100357.97;5410414;26;34863;-88
2022/05/18 05:50:55;;;;;;;;;;;;;;;16.89;49.15;100367.41;5407502;26;34844;-87
2022/05/18 05:53:24;;;;;;;;;;;;;;;17.28;48.73;100365.41;5404478;26;34251;-88
2022/05/18 05:55:53;;;;;;;;;;;;;;;17.42;48.13;100371.09;5404850;26;33534;-88
2022/05/18 05:58:23;;;;;;;;;;;;;;;17.25;47.30;100381.22;5406657;26;34841;-88
2022/05/18 06:00:52;;;;;;;;;;;;;;;17.04;47.29;100387.97;5404669;26;33865;-88
2022/05/18 06:03:21;;;;;;;;;;;;;;;17.66;45.40;100387.84;5410821;26;34823;-88
2022/05/18 06:05:50;;;;;;;;;;;;;;;18.23;44.70;100395.69;5405495;26;33638;-88
2022/05/18 06:08:18;;;;;;;;;;;;;;;18.36;44.60;100409.25;5405129;26;34149;-88
2022/05/18 06:10:47;;;;;;;;;;;;;;;17.88;44.97;100410.81;5384444;26;35388;-88
2022/05/18 06:13:16;;;;;;;;;;;;;;;17.72;45.08;100412.19;5404850;26;34041;-88
2022/05/18 06:15:47;;;;;;;;;;;;;;;17.96;44.61;100413.19;5408516;26;33374;-87
2022/05/18 06:18:17;;;;;;;;;;;;;;;17.00;45.83;100420.41;5404669;26;34398;-88
2022/05/18 06:20:47;;;;;;;;;;;;;;;17.48;45.32;100418.09;5404906;26;33556;-88
2022/05/18 06:23:16;;;;;;;;;;;;;;;17.69;45.51;100428.88;5405006;26;33654;-88
2022/05/18 06:25:46;;;;;;;;;;;;;;;17.88;43.98;100426.56;5410577;26;33174;-88
2022/05/18 06:28:15;;;;;;;;;;;;;;;18.30;43.14;100437.44;5405435;26;34482;-88
2022/05/18 06:30:44;;;;;;;;;;;;;;;18.13;42.51;100430.13;5404767;26;35013;-88
2022/05/18 06:33:14;;;;;;;;;;;;;;;18.62;41.79;100442.53;5404844;26;34643;-88
2022/05/18 06:35:44;;;;;;;;;;;;;;;18.02;42.29;100434.00;5404067;26;32987;-88
2022/05/18 06:38:14;;;;;;;;;;;;;;;18.50;41.27;100443.78;5409732;26;34857;-88
2022/05/18 06:43:30;;;;;;;;;;;;;;;18.19;42.18;100454.47;5405462;26;34462;-88
2022/05/18 06:45:58;;;;;;;;;;;;;;;18.19;41.57;100463.19;5405530;26;33536;-88
2022/05/18 06:48:28;;;;;;;;;;;;;;;18.50;41.06;100470.06;5404819;26;34647;-88
2022/05/18 06:51:15;;;;;;;;;;;;;;;18.52;40.80;100474.34;5405923;26;35055;-88
2022/05/18 06:53:43;;;;;;;;;;;;;;;18.52;41.56;100470.87;5405222;26;35339;-89
2022/05/18 06:56:13;;;;;;;;;;;;;;;18.73;41.14;100487.69;5390089;26;34298;-88
2022/05/18 06:58:42;;;;;;;;;;;;;;;18.72;39.83;100484.19;5405536;26;34497;-88
2022/05/18 07:01:17;;;;;;;;;;;;;;;18.92;39.57;100488.81;5405401;26;34742;-88
2022/05/18 07:03:47;;;;;;;;;;;;;;;18.93;40.05;100494.94;5405526;26;34492;-88
2022/05/18 07:06:18;;;;;;;;;;;;;;;19.01;40.02;100492.88;5406039;26;32887;-88
2022/05/18 07:08:47;;;;;;;;;;;;;;;18.52;41.10;100505.03;5389672;26;34987;-88
2022/05/18 07:11:15;;;;;;;;;;;;;;;18.71;40.13;100513.19;5406673;26;35107;-89
2022/05/18 07:13:51;;;;;;;;;;;;;;;17.99;42.15;100515.47;5384467;26;34632;-88
2022/05/18 07:16:20;;;;;;;;;;;;;;;18.71;40.23;100518.44;5405270;26;33321;-88
2022/05/18 07:18:51;;;;;;;;;;;;;;;18.91;40.25;100529.16;5405595;26;33876;-88
2022/05/18 07:21:25;;;;;;;;;;;;;;;19.04;39.99;100521.72;5384246;26;35285;-89
2022/05/18 07:23:54;;;;;;;;;;;;;;;19.20;38.74;100529.91;5410722;26;35093;-88
2022/05/18 07:26:24;;;;;;;;;;;;;;;18.92;40.20;100533.50;5405154;26;32903;-89
2022/05/18 07:28:52;;;;;;;;;;;;;;;18.28;40.88;100535.59;5405684;26;36399;-88
2022/05/18 07:31:21;;;;;;;;;;;;;;;19.09;39.25;100532.06;5404701;26;33769;-87
2022/05/18 07:34:11;;;;;;;;;;;;;;;19.07;39.36;100532.13;5404605;26;33874;-88
2022/05/18 07:36:39;;;;;;;;;;;;;;;19.72;38.48;100530.69;5404878;26;33553;-88
2022/05/18 07:39:08;;;;;;;;;;;;;;;19.54;37.88;100534.81;5410429;26;33963;-89
2022/05/18 07:41:37;;;;;;;;;;;;;;;19.09;38.58;100535.56;5403851;26;33983;-87
2022/05/18 07:44:05;;;;;;;;;;;;;;;19.88;37.50;100536.22;5404428;26;35898;-88
2022/05/18 07:46:35;;;;;;;;;;;;;;;20.02;37.37;100535.69;5404428;26;33519;-88
2022/05/18 07:49:04;;;;;;;;;;;;;;;19.75;37.24;100542.88;5405667;26;33479;-89
2022/05/18 07:51:34;;;;;;;;;;;;;;;19.23;37.90;100545.56;5410385;26;33655;-88
2022/05/18 07:54:03;;;;;;;;;;;;;;;19.10;37.42;100554.81;5405260;26;34525;-88
2022/05/18 07:56:34;;;;;;;;;;;;;;;19.57;37.75;100555.78;5405420;26;33467;-88
2022/05/18 07:59:03;;;;;;;;;;;;;;;19.66;37.04;100561.59;5404778;26;34564;-88
2022/05/18 08:01:32;;;;;;;;;;;;;;;19.87;34.99;100558.19;5404770;26;34839;-88
2022/05/18 08:04:01;;;;;;;;;;;;;;;19.87;35.23;100550.31;5410173;26;33953;-88
2022/05/18 08:06:30;;;;;;;;;;;;;;;19.56;35.74;100556.66;5405125;26;35176;-88
2022/05/18 08:08:59;;;;;;;;;;;;;;;19.20;35.96;100564.09;5404827;26;34871;-88
2022/05/18 08:17:18;;;;;;;;;;;;;;;20.15;35.22;100573.81;5334798;26;34214;-88
2022/05/18 08:19:47;;;;;;;;;;;;;;;19.95;36.33;100578.97;5334091;26;35381;-89
2022/05/18 08:22:16;;;;;;;;;;;;;;;19.44;36.82;100595.75;5373089;26;35203;-89
2022/05/18 08:24:47;;;;;;;;;;;;;;;20.22;34.44;100590.22;5384623;26;35244;-88
2022/05/18 08:27:16;;;;;;;;;;;;;;;19.92;36.75;100589.63;5405141;26;34715;-88
2022/05/18 08:29:45;;;;;;;;;;;;;;;19.77;37.34;100593.69;5404865;26;35000;-88
2022/05/18 08:32:14;;;;;;;;;;;;;;;19.47;38.58;100601.72;5403943;26;34620;-88
2022/05/18 08:34:42;;;;;;;;;;;;;;;19.70;37.49;100605.38;5410143;26;33967;-89
2022/05/18 08:37:13;;;;;;;;;;;;;;;19.88;38.22;100606.47;5408937;26;34304;-89
2022/05/18 08:39:42;;;;;;;;;;;;;;;19.70;36.77;100615.91;5384174;26;35318;-88
2022/05/18 08:42:12;;;;;;;;;;;;;;;19.88;35.49;100609.94;5383417;26;34369;-89
2022/05/18 08:44:43;;;;;;;;;;;;;;;19.69;36.31;100598.38;5383924;26;34742;-88
2022/05/18 08:47:13;;;;;;;;;;;;;;;19.69;37.31;100614.16;5404289;26;35201;-88
2022/05/18 08:49:45;;;;;;;;;;;;;;;19.29;36.85;100615.56;5409417;26;36092;-88
2022/05/18 08:52:37;;;;;;;;;;;;;;;19.07;36.91;100608.38;5385282;26;35930;-88
2022/05/18 08:55:13;;;;;;;;;;;;;;;19.54;36.63;100612.91;5399995;26;35053;-88
2022/05/18 08:57:43;;;;;;;;;;;;;;;20.16;35.13;100615.03;5405615;26;33323;-88
2022/05/18 09:00:15;;;;;;;;;;;;;;;20.31;35.22;100610.09;5405772;26;33042;-88
2022/05/18 09:02:44;;;;;;;;;;;;;;;20.14;35.01;100618.66;5406185;26;36379;-88
2022/05/18 09:05:14;;;;;;;;;;;;;;;20.21;35.30;100618.34;5410679;26;34369;-88
2022/05/18 09:07:55;;;;;;;;;;;;;;;20.05;35.65;100617.22;5410045;26;33507;-88
2022/05/18 09:10:25;;;;;;;;;;;;;;;20.38;34.83;100619.50;5405491;26;34385;-88
2022/05/18 09:12:55;;;;;;;;;;;;;;;20.25;35.95;100619.97;5405918;26;35533;-89
2022/05/18 09:15:35;;;;;;;;;;;;;;;20.30;35.60;100625.06;5404904;26;35594;-88
2022/05/18 09:18:06;;;;;;;;;;;;;;;20.56;33.60;100624.09;5405396;26;34028;-88
2022/05/18 09:20:37;;;;;;;;;;;;;;;20.32;34.03;100628.50;5389865;26;35355;-88
2022/05/18 09:23:31;;;;;;;;;;;;;;;20.39;33.31;100622.06;5411246;26;35354;-88
2022/05/18 09:26:04;;;;;;;;;;;;;;;20.70;33.26;100623.50;5405834;26;34508;-88
2022/05/18 09:28:40;;;;;;;;;;;;;;;20.60;32.11;100623.03;5405406;26;33282;-90
2022/05/18 09:31:11;;;;;;;;;;;;;;;20.78;32.79;100604.72;5405974;26;33607;-89
2022/05/18 09:33:49;;;;;;;;;;;;;;;20.64;31.92;100623.78;5384600;26;35213;-89
2022/05/18 09:36:23;;;;;;;;;;;;;;;20.30;31.64;100629.47;5405570;26;35217;-89
2022/05/18 09:38:54;;;;;;;;;;;;;;;20.15;30.73;100633.53;5389647;26;33816;-89
2022/05/18 10:16:31;;;;;;;;;;;;;;;21.28;28.54;100631.62;5267621;27;34578;-90
2022/05/18 11:25:11;;;;;;;;;;;;;;;24.72;20.32;100607.63;4482268;31;804694;-88
2022/05/18 11:28:02;;;;;;;;;;;;;;;24.72;20.32;100607.63;4525582;31;32989;-88
2022/05/18 11:30:33;;;;;;;;;;;;;;;23.90;19.51;100603.34;4515019;31;33902;-89
2022/05/18 11:33:04;;;;;;;;;;;;;;;24.35;17.96;100607.88;4512289;31;34488;-88
2022/05/18 11:35:34;;;;;;;;;;;;;;;24.63;18.21;100609.03;4523196;31;33978;-88
2022/05/18 11:38:21;;;;;;;;;;;;;;;25.01;18.63;100605.91;4522806;31;33273;-88
2022/05/18 11:40:54;;;;;;;;;;;;;;;24.56;18.82;100605.84;4523192;31;34147;-88
2022/05/18 11:43:33;;;;;;;;;;;;;;;24.70;18.86;100603.25;4523152;31;34239;-88
2022/05/18 11:46:16;;;;;;;;;;;;;;;24.84;18.75;100601.59;4480607;32;34623;-89
2022/05/18 11:48:50;;;;;;;;;;;;;;;25.16;18.45;100597.06;4509704;31;35658;-88
2022/05/18 11:51:21;;;;;;;;;;;;;;;25.40;16.72;100602.75;4492834;31;36319;-88
2022/05/18 11:53:53;;;;;;;;;;;;;;;25.50;17.52;100597.72;4507990;31;35100;-88
2022/05/18 11:56:29;;;;;;;;;;;;;;;25.77;17.34;100598.66;4489226;32;34267;-89
2022/05/18 11:59:21;;;;;;;;;;;;;;;25.19;17.64;100607.53;4478504;31;33276;-88
2022/05/18 12:01:51;;;;;;;;;;;;;;;24.52;18.33;100603.47;4499991;31;35282;-88
2022/05/18 12:04:26;;;;;;;;;;;;;;;25.14;17.06;100604.25;4493425;31;35208;-89
2022/05/18 12:07:02;;;;;;;;;;;;;;;25.38;15.87;100598.47;4484754;32;34971;-88
2022/05/18 12:09:38;;;;;;;;;;;;;;;25.77;16.26;100593.34;4476859;32;33417;-89
2022/05/18 12:12:11;;;;;;;;;;;;;;;25.53;16.70;100603.69;4477833;31;36583;-90
2022/05/18 12:14:42;;;;;;;;;;;;;;;25.21;16.84;100599.47;4499403;31;34292;-89
2022/05/18 12:17:11;;;;;;;;;;;;;;;25.35;16.93;100607.47;4507859;31;33375;-88
2022/05/18 12:19:46;;;;;;;;;;;;;;;26.16;16.02;100601.59;4494744;31;34503;-89
2022/05/18 12:22:16;;;;;;;;;;;;;;;25.25;15.81;100593.03;4505353;31;34787;-88
2022/05/18 12:24:46;;;;;;;;;;;;;;;25.90;15.52;100598.81;4477099;32;34319;-88
2022/05/18 12:27:27;;;;;;;;;;;;;;;25.66;16.10;100590.53;4490359;31;33672;-91
2022/05/18 12:30:05;;;;;;;;;;;;;;;24.50;18.14;100595.59;4497742;31;33857;-89
2022/05/18 12:32:35;;;;;;;;;;;;;;;24.41;18.37;100599.59;4478738;31;34953;-89
2022/05/18 12:35:08;;;;;;;;;;;;;;;25.68;17.18;100606.34;4492557;31;34979;-89
2022/05/18 12:37:51;;;;;;;;;;;;;;;25.76;18.10;100607.59;4492282;31;36302;-89
2022/05/18 12:40:30;;;;;;;;;;;;;;;26.61;17.06;100607.59;4490516;31;34048;-90
2022/05/18 14:45:00;;;;;;;;;;;;;;;31.09;8.34;100569.63;4541519;28;20527;-89
2022/05/18 14:58:24;;;;;;;;;;;;;;;30.08;12.25;100585.03;4209572;34;33981;-88
2022/05/18 15:01:13;;;;;;;;;;;;;;;;;;;;;
2022/05/18 15:47:14;;;;;;;;;;;;;;;32.85;7.38;100562.00;3823808;32;19999;-90
2022/05/18 15:50:12;;;;;;;;;;;;;;;31.95;7.96;100560.34;4169771;34;32812;-90
2022/05/18 15:52:41;;;;;;;;;;;;;;;31.75;7.86;100563.91;4202689;34;33672;-90
2022/05/18 15:55:17;;;;;;;;;;;;;;;31.44;7.71;100574.66;4199537;34;38127;-90
2022/05/18 15:57:52;;;;;;;;;;;;;;;31.38;8.06;100565.28;4233666;33;33223;-90
2022/05/18 16:00:26;;;;;;;;;;;;;;;31.25;8.23;100567.34;4269744;33;33958;-87
2022/05/18 16:02:56;;;;;;;;;;;;;;;31.64;8.24;100562.19;4269493;33;33481;-88
2022/05/18 16:05:29;;;;;;;;;;;;;;;31.77;7.89;100560.09;4269468;33;33302;-88
2022/05/18 16:08:03;;;;;;;;;;;;;;;32.08;7.50;100568.13;4269318;33;34063;-88
2022/05/18 16:10:33;;;;;;;;;;;;;;;32.54;7.60;100568.50;4270373;33;33946;-88
2022/05/18 16:13:07;;;;;;;;;;;;;;;33.05;8.30;100570.06;4275266;33;34682;-88
2022/05/18 16:15:44;;;;;;;;;;;;;;;33.35;7.17;100569.00;4271539;33;34308;-87
2022/05/18 16:18:14;;;;;;;;;;;;;;;33.43;6.70;100571.78;4269252;33;34125;-87
2022/05/18 16:20:43;;;;;;;;;;;;;;;33.63;8.74;100569.91;4255383;33;32820;-87
2022/05/18 16:23:22;;;;;;;;;;;;;;;33.60;7.49;100572.06;4270519;33;34220;-87
2022/05/18 16:25:51;;;;;;;;;;;;;;;33.79;8.83;100569.28;4270274;33;34305;-87
2022/05/18 16:28:22;;;;;;;;;;;;;;;33.82;7.20;100579.72;4274296;33;34467;-88
2022/05/18 16:30:52;;;;;;;;;;;;;;;33.30;7.51;100576.66;4270417;33;34243;-89
2022/05/18 16:33:31;;;;;;;;;;;;;;;33.11;8.45;100573.03;4256195;33;32357;-88
2022/05/18 16:36:01;;;;;;;;;;;;;;;32.15;8.50;100580.03;4268539;33;34108;-88
2022/05/18 16:38:52;;;;;;;;;;;;;;;32.25;8.38;100574.66;4269786;33;33539;-88
2022/05/18 16:41:24;;;;;;;;;;;;;;;30.22;8.94;100581.22;4268176;33;33122;-88
2022/05/18 16:43:55;;;;;;;;;;;;;;;30.24;9.23;100579.28;4274589;33;33953;-88
2022/05/18 16:46:24;;;;;;;;;;;;;;;30.38;8.78;100573.69;4268113;33;35048;-88
2022/05/18 16:48:54;;;;;;;;;;;;;;;29.52;9.52;100577.00;4269855;33;34196;-88
2022/05/18 16:51:23;;;;;;;;;;;;;;;28.85;9.74;100580.34;4266083;33;32354;-87
2022/05/18 16:53:52;;;;;;;;;;;;;;;29.06;9.55;100575.19;4265199;33;33947;-88
2022/05/18 16:56:21;;;;;;;;;;;;;;;28.48;10.99;100586.63;4261600;33;34110;-88
2022/05/18 16:58:49;;;;;;;;;;;;;;;28.69;10.85;100586.00;4270064;33;33559;-89
2022/05/18 17:01:19;;;;;;;;;;;;;;;27.42;11.07;100590.63;4270770;33;33313;-88
2022/05/18 17:03:48;;;;;;;;;;;;;;;26.70;11.69;100587.50;4268555;33;34872;-87
2022/05/18 17:06:19;;;;;;;;;;;;;;;26.86;11.58;100590.00;4269109;33;34593;-87
2022/05/18 17:08:51;;;;;;;;;;;;;;;26.44;12.20;100583.88;4274421;33;34686;-87
2022/05/18 17:11:20;;;;;;;;;;;;;;;26.00;12.17;100585.78;4269938;33;33064;-87
2022/05/18 17:13:50;;;;;;;;;;;;;;;25.73;12.80;100594.50;4269766;33;35621;-87
2022/05/18 17:16:18;;;;;;;;;;;;;;;25.47;12.86;100600.56;4270056;33;34250;-87
2022/05/18 17:18:47;;;;;;;;;;;;;;;24.76;13.37;100601.19;4256777;33;33229;-87
2022/05/18 17:21:21;;;;;;;;;;;;;;;24.59;14.25;100603.03;4274312;33;32892;-87
2022/05/18 17:23:50;;;;;;;;;;;;;;;24.44;15.29;100599.41;4274425;33;34983;-87
2022/05/18 17:26:19;;;;;;;;;;;;;;;24.48;14.86;100606.28;4268573;33;35093;-87
2022/05/18 17:28:49;;;;;;;;;;;;;;;24.16;14.32;100607.19;4266445;33;34695;-87
2022/05/18 17:31:17;;;;;;;;;;;;;;;24.33;14.27;100607.13;4284807;33;33218;-87
2022/05/18 17:33:46;;;;;;;;;;;;;;;24.12;14.03;100606.53;4284267;33;33868;-87
2022/05/18 17:36:14;;;;;;;;;;;;;;;24.00;14.35;100607.19;4289148;33;34228;-87
2022/05/18 17:38:47;;;;;;;;;;;;;;;23.91;15.21;100610.34;4270206;33;34189;-87
2022/05/18 17:41:15;;;;;;;;;;;;;;;23.56;15.76;100610.41;4269449;33;33138;-87
2022/05/18 17:43:44;;;;;;;;;;;;;;;23.65;16.32;100615.19;4268638;33;34225;-87
2022/05/18 17:46:12;;;;;;;;;;;;;;;23.36;18.39;100616.72;4268168;33;33860;-87
2022/05/18 17:48:59;;;;;;;;;;;;;;;23.54;19.02;100617.56;4255022;33;34434;-87